createdAt,value
2023-04-16T00:01:50.557Z,8.38
2023-04-16T00:04:17.488Z,4.35
2023-04-16T00:06:44.481Z,9.30
2023-04-16T00:09:11.455Z,8.93
2023-04-16T00:11:38.314Z,4.78
2023-04-16T00:14:05.303Z,9.65
2023-04-16T00:16:32.732Z,9.95
2023-04-16T00:18:59.573Z,12.50
2023-04-16T00:21:26.553Z,5.32
2023-04-16T00:23:53.453Z,9.57
2023-04-16T00:26:20.453Z,9.40
2023-04-16T00:28:47.177Z,11.40
2023-04-16T00:31:13.950Z,7.72
2023-04-16T00:33:41.083Z,6.50
2023-04-16T00:36:07.959Z,9.85
2023-04-16T00:38:34.971Z,11.77
2023-04-16T00:41:01.705Z,8.45
2023-04-16T00:43:28.697Z,9.07
2023-04-16T00:45:57.380Z,8.40
2023-04-16T00:48:24.502Z,10.88
2023-04-16T00:50:51.234Z,10.13
2023-04-16T00:53:18.025Z,7.75
2023-04-16T00:55:45.700Z,7.78
2023-04-16T00:58:12.923Z,9.80
2023-04-16T01:00:39.727Z,11.50
2023-04-16T01:03:06.640Z,10.88
2023-04-16T01:05:33.579Z,10.93
2023-04-16T01:08:02.955Z,10.55
2023-04-16T01:10:29.731Z,9.52
2023-04-16T01:12:56.572Z,9.25
2023-04-16T01:15:23.290Z,12.27
2023-04-16T01:17:51.114Z,14.63
2023-04-16T01:20:18.004Z,10.82
2023-04-16T01:22:44.774Z,11.48
2023-04-16T01:25:15.782Z,11.65
2023-04-16T01:27:42.625Z,10.23
2023-04-16T01:30:09.754Z,12.63
2023-04-16T01:32:36.489Z,11.93
2023-04-16T01:35:03.711Z,11.95
2023-04-16T01:37:31.418Z,12.82
2023-04-16T01:39:58.285Z,10.63
2023-04-16T01:42:25.076Z,8.15
2023-04-16T01:44:51.797Z,12.63
2023-04-16T01:47:18.761Z,9.98
2023-04-16T01:49:48.070Z,17.80
2023-04-16T01:52:14.843Z,12.98
2023-04-16T01:54:41.901Z,11.00
2023-04-16T01:57:09.119Z,17.55
2023-04-16T01:59:35.836Z,11.85
2023-04-16T02:02:12.208Z,11.88
2023-04-16T02:04:40.903Z,12.98
2023-04-16T02:07:08.515Z,11.18
2023-04-16T02:09:37.072Z,15.45
2023-04-16T02:12:04.149Z,14.05
2023-04-16T02:14:32.331Z,13.00
2023-04-16T02:17:00.621Z,17.05
2023-04-16T02:19:27.388Z,15.35
2023-04-16T02:21:54.946Z,13.70
2023-04-16T02:24:21.986Z,13.60
2023-04-16T02:26:48.715Z,16.90
2023-04-16T02:29:16.418Z,15.85
2023-04-16T02:31:43.311Z,17.15
2023-04-16T02:34:10.221Z,14.90
2023-04-16T02:36:37.056Z,20.08
2023-04-16T02:39:04.549Z,16.70
2023-04-16T02:41:31.265Z,15.85
2023-04-16T02:43:58.041Z,13.65
2023-04-16T02:46:24.975Z,14.25
2023-04-16T02:48:51.796Z,12.57
2023-04-16T02:51:18.599Z,17.15
2023-04-16T02:53:46.077Z,17.60
2023-04-16T02:56:13.004Z,17.38
2023-04-16T02:58:39.728Z,16.80
2023-04-16T03:01:06.483Z,16.55
2023-04-16T03:03:33.232Z,16.45
2023-04-16T03:05:59.962Z,17.55
2023-04-16T03:08:27.425Z,19.05
2023-04-16T03:10:54.169Z,24.80
2023-04-16T03:13:20.943Z,23.15
2023-04-16T03:15:50.967Z,19.60
2023-04-16T03:18:17.825Z,17.40
2023-04-16T03:20:44.591Z,18.67
2023-04-16T03:23:11.349Z,17.23
2023-04-16T03:25:40.449Z,21.98
2023-04-16T03:28:07.343Z,22.90
2023-04-16T03:30:34.094Z,18.65
2023-04-16T03:33:01.150Z,23.23
2023-04-16T03:35:28.003Z,24.02
2023-04-16T03:37:54.815Z,21.10
2023-04-16T03:40:21.545Z,20.85
2023-04-16T03:42:48.296Z,21.48
2023-04-16T03:45:15.452Z,21.65
2023-04-16T03:47:42.471Z,19.35
2023-04-16T03:50:09.699Z,29.73
2023-04-16T03:52:36.466Z,26.10
2023-04-16T03:55:04.022Z,31.10
2023-04-16T03:57:30.821Z,17.92
2023-04-16T04:22:31.661Z,30.48
2023-04-16T04:24:58.435Z,26.13
2023-04-16T04:27:25.225Z,26.17
2023-04-16T04:29:52.047Z,29.00
2023-04-16T04:32:18.797Z,22.63
2023-04-16T04:34:45.543Z,28.52
2023-04-16T04:37:12.265Z,32.08
2023-04-16T04:39:39.008Z,20.83
2023-04-16T04:42:05.934Z,23.42
2023-04-16T04:44:32.665Z,23.10
2023-04-16T04:46:59.428Z,37.15
2023-04-16T04:49:26.244Z,22.95
2023-04-16T04:51:53.002Z,27.75
2023-04-16T04:54:19.724Z,22.15
2023-04-16T04:56:46.517Z,28.45
2023-04-16T04:59:13.558Z,36.60
2023-04-16T05:01:40.688Z,25.13
2023-04-16T05:04:07.584Z,27.02
2023-04-16T05:06:34.348Z,36.05
2023-04-16T05:09:01.298Z,29.33
2023-04-16T05:11:28.081Z,39.13
2023-04-16T05:13:54.805Z,28.13
2023-04-16T05:16:21.593Z,37.22
2023-04-16T05:18:48.357Z,31.42
2023-04-16T05:21:15.085Z,34.03
2023-04-16T05:23:41.798Z,33.10
2023-04-16T05:26:08.536Z,37.10
2023-04-16T05:28:35.347Z,32.45
2023-04-16T05:31:02.561Z,40.45
2023-04-16T05:33:29.416Z,37.85
2023-04-16T05:35:56.153Z,37.08
2023-04-16T05:38:22.969Z,40.40
2023-04-16T05:40:49.927Z,37.33
2023-04-16T05:43:17.179Z,35.72
2023-04-16T05:45:43.993Z,33.63
2023-04-16T05:48:10.848Z,36.03
2023-04-16T05:50:37.928Z,34.58
2023-04-16T05:53:08.113Z,37.20
2023-04-16T05:55:36.842Z,32.22
2023-04-16T05:58:06.868Z,39.85
2023-04-16T06:00:33.793Z,40.53
2023-04-16T06:03:01.104Z,46.90
2023-04-16T06:05:28.566Z,47.13
2023-04-16T06:07:56.400Z,36.83
2023-04-16T06:10:23.431Z,37.45
2023-04-16T06:12:50.349Z,42.03
2023-04-16T06:15:17.145Z,36.38
2023-04-16T06:17:43.894Z,39.95
2023-04-16T06:20:11.995Z,41.92
2023-04-16T06:22:38.834Z,37.88
2023-04-16T06:25:06.376Z,48.03
2023-04-16T06:27:33.132Z,36.45
2023-04-16T06:29:59.861Z,43.58
2023-04-16T06:32:26.797Z,40.22
2023-04-16T06:34:53.743Z,33.28
2023-04-16T06:37:20.867Z,38.35
2023-04-16T06:39:47.569Z,38.65
2023-04-16T06:42:14.326Z,37.88
2023-04-16T06:44:41.120Z,42.53
2023-04-16T06:47:08.204Z,41.92
2023-04-16T06:49:34.990Z,42.63
2023-04-16T06:52:03.356Z,42.20
2023-04-16T06:54:31.612Z,35.10
2023-04-16T06:56:58.346Z,38.65
2023-04-16T06:59:25.324Z,39.88
2023-04-16T07:01:52.787Z,36.55
2023-04-16T07:04:19.761Z,41.10
2023-04-16T07:06:46.624Z,36.58
2023-04-16T07:09:13.343Z,35.42
2023-04-16T07:11:40.934Z,36.47
2023-04-16T07:14:08.181Z,36.75
2023-04-16T07:16:35.066Z,43.33
2023-04-16T07:19:01.835Z,31.02
2023-04-16T07:21:28.564Z,37.40
2023-04-16T07:23:55.293Z,36.72
2023-04-16T07:26:22.031Z,29.90
2023-04-16T07:28:48.759Z,34.13
2023-04-16T07:31:15.642Z,35.53
2023-04-16T07:33:42.382Z,37.63
2023-04-16T07:36:09.451Z,25.40
2023-04-16T07:38:36.190Z,38.78
2023-04-16T07:41:03.060Z,38.33
2023-04-16T07:43:29.806Z,31.73
2023-04-16T07:45:56.748Z,30.55
2023-04-16T07:48:23.584Z,33.38
2023-04-16T07:50:50.404Z,33.95
2023-04-16T07:53:17.132Z,36.28
2023-04-16T07:55:43.971Z,33.03
2023-04-16T07:58:10.848Z,34.58
2023-04-16T08:00:37.999Z,29.10
2023-04-16T08:03:04.896Z,33.80
2023-04-16T08:05:31.813Z,39.28
2023-04-16T08:07:58.674Z,36.70
2023-04-16T08:10:25.578Z,34.65
2023-04-16T08:12:52.304Z,35.53
2023-04-16T08:15:19.439Z,30.55
2023-04-16T08:17:46.285Z,32.50
2023-04-16T08:20:15.797Z,29.50
2023-04-16T08:22:46.209Z,30.35
2023-04-16T08:25:12.960Z,32.05
2023-04-16T08:27:39.727Z,27.73
2023-04-16T08:30:07.804Z,33.40
2023-04-16T08:32:34.608Z,31.42
2023-04-16T08:35:01.450Z,30.52
2023-04-16T08:37:28.206Z,28.38
2023-04-16T08:39:54.960Z,30.23
2023-04-16T08:42:32.827Z,26.85
2023-04-16T08:45:13.287Z,36.47
2023-04-16T08:47:41.349Z,26.15
2023-04-16T08:50:11.520Z,29.92
2023-04-16T08:52:47.096Z,29.65
2023-04-16T08:55:14.786Z,31.65
2023-04-16T08:57:54.129Z,26.10
2023-04-16T09:00:21.245Z,26.83
2023-04-16T09:02:50.250Z,28.40
2023-04-16T09:05:17.952Z,24.40
2023-04-16T09:07:46.463Z,27.02
2023-04-16T09:10:15.576Z,28.88
2023-04-16T09:12:42.916Z,28.27
2023-04-16T09:15:14.141Z,27.58
2023-04-16T09:17:41.253Z,29.35
2023-04-16T09:20:09.449Z,23.92
2023-04-16T09:22:36.777Z,25.90
2023-04-16T09:25:03.801Z,25.60
2023-04-16T09:27:31.701Z,27.63
2023-04-16T09:29:58.647Z,30.85
2023-04-16T09:32:27.701Z,25.17
2023-04-16T09:35:01.821Z,26.20
2023-04-16T09:37:30.881Z,28.88
2023-04-16T09:40:01.273Z,27.85
2023-04-16T09:42:37.028Z,28.90
2023-04-16T09:45:06.024Z,27.65
2023-04-16T09:47:42.591Z,26.88
2023-04-16T09:50:17.711Z,29.80
2023-04-16T09:52:51.109Z,29.65
2023-04-16T09:55:23.906Z,27.70
2023-04-16T09:58:00.460Z,26.25
2023-04-16T10:00:31.264Z,26.38
2023-04-16T10:03:06.833Z,28.67
2023-04-16T10:05:33.935Z,27.65
2023-04-16T10:08:03.678Z,31.40
2023-04-16T10:10:30.571Z,29.70
2023-04-16T10:12:57.967Z,23.55
2023-04-16T10:15:25.202Z,24.40
2023-04-16T10:17:52.451Z,23.92
2023-04-16T10:20:19.590Z,21.77
2023-04-16T10:22:46.629Z,26.13
2023-04-16T10:25:13.783Z,25.45
2023-04-16T10:27:41.338Z,25.38
2023-04-16T10:30:09.786Z,25.08
2023-04-16T10:32:38.153Z,25.77
2023-04-16T10:35:06.159Z,25.00
2023-04-16T10:37:33.497Z,22.77
2023-04-16T10:40:00.352Z,24.58
2023-04-16T10:42:27.466Z,20.67
2023-04-16T10:44:54.307Z,21.67
2023-04-16T10:47:25.962Z,25.88
2023-04-16T10:49:52.736Z,28.45
2023-04-16T10:52:20.093Z,24.77
2023-04-16T10:54:50.481Z,24.65
2023-04-16T10:57:19.840Z,21.35
2023-04-16T10:59:48.631Z,20.83
2023-04-16T11:02:19.684Z,21.05
2023-04-16T11:04:48.955Z,23.05
2023-04-16T11:07:20.364Z,18.83
2023-04-16T11:10:00.279Z,19.35
2023-04-16T11:12:37.160Z,21.05
2023-04-16T11:15:15.743Z,15.48
2023-04-16T11:17:46.990Z,23.05
2023-04-16T11:20:23.805Z,20.63
2023-04-16T11:22:52.579Z,21.17
2023-04-16T11:25:27.317Z,18.70
2023-04-16T11:27:54.597Z,17.60
2023-04-16T11:30:36.706Z,18.20
2023-04-16T11:33:09.842Z,19.13
2023-04-16T11:35:41.170Z,14.68
2023-04-16T11:38:08.019Z,15.60
2023-04-16T11:40:36.242Z,15.93
2023-04-16T11:43:16.871Z,15.40
2023-04-16T11:46:20.133Z,15.43
2023-04-16T11:48:55.873Z,13.80
2023-04-16T11:53:53.006Z,15.38
2023-04-16T11:56:28.249Z,19.23
2023-04-16T11:59:23.229Z,14.35
2023-04-16T12:01:57.845Z,13.38
2023-04-16T12:04:27.110Z,13.45
2023-04-16T12:07:14.101Z,14.20
2023-04-16T12:09:43.020Z,11.52
2023-04-16T12:12:31.173Z,15.55
2023-04-16T12:15:03.812Z,11.73
2023-04-16T12:17:33.192Z,13.00
2023-04-16T12:20:15.339Z,13.85
2023-04-16T12:22:52.682Z,13.98
2023-04-16T12:25:19.487Z,11.65
2023-04-16T12:27:51.344Z,13.52
2023-04-16T12:30:22.558Z,12.45
2023-04-16T12:32:52.393Z,13.85
2023-04-16T12:35:34.177Z,13.90
2023-04-16T12:38:01.322Z,17.00
2023-04-16T12:40:28.188Z,15.90
2023-04-16T12:42:55.335Z,17.15
2023-04-16T12:45:22.820Z,15.02
2023-04-16T12:47:50.399Z,16.67
2023-04-16T12:50:17.635Z,14.57
2023-04-16T12:52:44.567Z,15.30
2023-04-16T12:55:11.911Z,14.23
2023-04-16T12:57:38.669Z,15.20
2023-04-16T13:00:06.705Z,12.77
2023-04-16T13:02:34.071Z,16.25
2023-04-16T13:05:01.465Z,15.68
2023-04-16T13:07:28.898Z,14.57
2023-04-16T13:09:55.660Z,15.57
2023-04-16T13:12:22.383Z,15.50
2023-04-16T13:14:49.122Z,15.50
2023-04-16T13:17:16.021Z,16.25
2023-04-16T13:19:42.863Z,16.00
2023-04-16T13:22:09.666Z,15.40
2023-04-16T13:24:36.526Z,16.80
2023-04-16T13:27:03.470Z,16.70
2023-04-16T13:29:30.394Z,17.05
2023-04-16T13:31:57.673Z,19.25
2023-04-16T13:34:24.507Z,18.67
2023-04-16T13:36:51.298Z,16.77
2023-04-16T13:39:18.188Z,14.82
2023-04-16T13:41:45.048Z,16.13
2023-04-16T13:44:11.806Z,15.93
2023-04-16T13:46:38.708Z,16.77
2023-04-16T13:49:05.522Z,14.40
2023-04-16T13:51:32.710Z,16.77
2023-04-16T13:53:59.413Z,16.52
2023-04-16T13:56:26.484Z,16.98
2023-04-16T13:58:53.306Z,18.25
2023-04-16T14:01:20.511Z,16.70
2023-04-16T14:03:47.421Z,17.33
2023-04-16T14:06:14.957Z,16.77
2023-04-16T14:08:41.799Z,20.45
2023-04-16T14:11:09.176Z,17.85
2023-04-16T14:13:36.632Z,19.85
2023-04-16T14:16:03.707Z,20.17
2023-04-16T14:18:30.538Z,19.23
2023-04-16T14:20:58.528Z,20.00
2023-04-16T14:23:25.237Z,26.92
2023-04-16T14:25:52.045Z,19.27
2023-04-16T14:28:20.218Z,19.20
2023-04-16T14:30:46.977Z,22.92
2023-04-16T14:33:13.703Z,23.92
2023-04-16T14:35:41.276Z,21.88
2023-04-16T14:38:08.025Z,21.75
2023-04-16T14:40:35.223Z,22.45
2023-04-16T14:43:01.963Z,21.00
2023-04-16T14:45:29.955Z,22.33
2023-04-16T14:47:56.979Z,24.27
2023-04-16T14:50:23.769Z,19.15
2023-04-16T14:52:51.070Z,23.42
2023-04-16T14:55:17.964Z,20.75
2023-04-16T14:57:44.750Z,19.30
2023-04-16T15:00:13.217Z,19.60
2023-04-16T15:02:40.118Z,22.55
2023-04-16T15:05:09.721Z,27.38
2023-04-16T15:07:37.137Z,23.92
2023-04-16T15:10:04.423Z,23.40
2023-04-16T15:12:31.275Z,21.70
2023-04-16T15:14:59.707Z,24.95
2023-04-16T15:17:26.800Z,28.80
2023-04-16T15:19:53.634Z,20.77
2023-04-16T15:22:20.441Z,21.40
2023-04-16T15:24:47.174Z,26.27
2023-04-16T15:27:14.669Z,20.40
2023-04-16T15:29:41.577Z,21.98
2023-04-16T15:32:08.529Z,22.80
2023-04-16T15:34:35.261Z,20.08
2023-04-16T15:37:02.172Z,23.02
2023-04-16T15:39:29.146Z,23.92
2023-04-16T15:42:00.837Z,24.17
2023-04-16T15:44:31.017Z,17.67
2023-04-16T15:46:58.268Z,22.52
2023-04-16T15:49:25.277Z,19.70
2023-04-16T15:51:53.015Z,20.95
2023-04-16T15:54:19.972Z,23.88
2023-04-16T15:56:46.943Z,19.85
2023-04-16T15:59:13.752Z,22.58
2023-04-16T16:01:40.823Z,21.67
2023-04-16T16:04:08.100Z,22.25
2023-04-16T16:06:35.715Z,18.30
2023-04-16T16:09:02.464Z,20.60
2023-04-16T16:11:29.275Z,19.38
2023-04-16T16:13:56.019Z,22.52
2023-04-16T16:16:22.857Z,20.63
2023-04-16T16:18:49.622Z,24.92
2023-04-16T16:21:16.605Z,18.60
2023-04-16T16:23:43.320Z,23.67
2023-04-16T16:26:10.056Z,21.00
2023-04-16T16:28:37.970Z,23.88
2023-04-16T16:31:05.941Z,25.50
2023-04-16T16:33:33.206Z,20.42
2023-04-16T16:36:00.288Z,23.80
2023-04-16T16:38:27.225Z,22.25
2023-04-16T16:40:53.959Z,20.58
2023-04-16T16:43:20.840Z,20.70
2023-04-16T16:45:47.587Z,25.52
2023-04-16T16:48:14.471Z,19.08
2023-04-16T16:50:41.319Z,20.13
2023-04-16T16:53:08.061Z,23.42
2023-04-16T16:55:35.658Z,20.70
2023-04-16T16:58:03.330Z,22.35
2023-04-16T17:00:30.060Z,19.48
2023-04-16T17:02:56.963Z,19.52
2023-04-16T17:05:23.801Z,18.60
2023-04-16T17:07:50.642Z,19.15
2023-04-16T17:10:20.805Z,21.65
2023-04-16T17:12:49.073Z,23.25
2023-04-16T17:15:16.899Z,19.30
2023-04-16T17:17:44.863Z,20.23
2023-04-16T17:20:12.473Z,19.63
2023-04-16T17:22:40.291Z,17.40
2023-04-16T17:25:08.178Z,24.20
2023-04-16T17:27:35.123Z,21.02
2023-04-16T17:30:03.430Z,23.23
2023-04-16T17:32:32.504Z,22.20
2023-04-16T17:35:01.564Z,22.05
2023-04-16T17:37:28.495Z,24.02
2023-04-16T17:39:55.368Z,25.25
2023-04-16T17:42:22.143Z,22.38
2023-04-16T17:44:48.867Z,25.60
2023-04-16T17:47:15.733Z,23.65
2023-04-16T17:49:42.526Z,24.75
2023-04-16T17:52:09.373Z,22.73
2023-04-16T17:54:36.206Z,20.20
2023-04-16T17:57:02.978Z,29.02
2023-04-16T17:59:29.729Z,21.58
2023-04-16T18:01:56.815Z,19.30
2023-04-16T18:04:23.757Z,22.77
2023-04-16T18:06:50.821Z,21.55
2023-04-16T18:09:19.157Z,25.88
2023-04-16T18:11:46.016Z,22.20
2023-04-16T18:14:16.562Z,23.95
2023-04-16T18:16:43.378Z,28.42
2023-04-16T18:19:10.273Z,22.95
2023-04-16T18:21:37.067Z,23.90
2023-04-16T18:24:03.943Z,23.38
2023-04-16T18:26:31.188Z,21.63
2023-04-16T18:28:59.614Z,23.52
2023-04-16T18:31:26.931Z,21.73
2023-04-16T18:33:57.984Z,21.42
2023-04-16T18:36:26.714Z,24.50
2023-04-16T18:41:24.174Z,22.33
2023-04-16T18:43:51.185Z,21.95
2023-04-16T18:46:18.104Z,27.00
2023-04-16T18:48:45.327Z,22.55
2023-04-16T18:51:14.237Z,25.52
2023-04-16T18:53:44.057Z,25.80
2023-04-16T18:56:11.020Z,25.30
2023-04-16T18:58:37.923Z,24.55
2023-04-16T19:01:07.612Z,21.95
2023-04-16T19:03:34.562Z,29.40
2023-04-16T19:06:01.853Z,21.88
2023-04-16T19:08:28.656Z,20.58
2023-04-16T19:10:55.539Z,25.30
2023-04-16T19:13:22.265Z,21.73
2023-04-16T19:15:49.029Z,24.02
2023-04-16T19:18:16.050Z,24.67
2023-04-16T19:20:42.780Z,22.23
2023-04-16T19:23:09.484Z,23.52
2023-04-16T19:25:36.453Z,23.45
2023-04-16T19:28:04.010Z,24.15
2023-04-16T19:30:31.051Z,27.15
2023-04-16T19:32:57.848Z,25.23
2023-04-16T19:35:24.640Z,27.40
2023-04-16T19:37:51.560Z,24.48
2023-04-16T19:40:18.381Z,23.98
2023-04-16T19:42:45.464Z,26.33
2023-04-16T19:45:12.438Z,21.65
2023-04-16T19:47:39.293Z,22.90
2023-04-16T19:50:06.920Z,25.92
2023-04-16T19:52:38.634Z,25.95
2023-04-16T19:55:06.924Z,25.42
2023-04-16T19:57:33.860Z,24.98
2023-04-16T20:00:00.924Z,23.60
2023-04-16T20:02:27.858Z,23.48
2023-04-16T20:04:54.800Z,23.02
2023-04-16T20:07:21.649Z,23.95
2023-04-16T20:09:48.433Z,24.38
2023-04-16T20:12:15.463Z,25.30
2023-04-16T20:14:43.764Z,27.75
2023-04-16T20:17:10.634Z,26.58
2023-04-16T20:19:40.552Z,25.48
2023-04-16T20:22:07.267Z,26.48
2023-04-16T20:24:34.107Z,23.13
2023-04-16T20:27:01.617Z,23.17
2023-04-16T20:29:28.380Z,23.25
2023-04-16T20:31:55.161Z,25.95
2023-04-16T20:34:21.889Z,26.45
2023-04-16T20:36:48.712Z,25.05
2023-04-16T20:39:20.404Z,25.48
2023-04-16T20:41:56.454Z,25.98
2023-04-16T20:44:32.871Z,26.50
2023-04-16T20:46:59.942Z,24.55
2023-04-16T20:49:26.673Z,30.00
2023-04-16T20:51:53.459Z,25.85
2023-04-16T20:54:20.321Z,22.10
2023-04-16T20:56:47.137Z,30.15
2023-04-16T20:59:13.861Z,30.27
2023-04-16T21:01:40.639Z,30.58
2023-04-16T21:04:07.879Z,25.98
2023-04-16T21:06:38.314Z,30.25
2023-04-16T21:09:05.917Z,31.33
2023-04-16T21:11:34.631Z,26.48
2023-04-16T21:14:02.346Z,27.45
2023-04-16T21:16:29.463Z,26.23
2023-04-16T21:18:56.983Z,24.25
2023-04-16T21:21:24.766Z,25.35
2023-04-16T21:23:51.606Z,27.60
2023-04-16T21:26:18.593Z,29.15
2023-04-16T21:28:45.349Z,27.50
2023-04-16T21:31:12.250Z,25.98
2023-04-16T21:33:39.069Z,27.60
2023-04-16T21:36:06.368Z,26.75
2023-04-16T21:38:33.137Z,27.90
2023-04-16T21:41:01.769Z,31.40
2023-04-16T21:43:30.535Z,32.08
2023-04-16T21:45:57.746Z,30.65
2023-04-16T21:48:24.775Z,30.80
2023-04-16T21:50:59.950Z,29.83
2023-04-16T21:53:30.816Z,30.38
2023-04-16T21:55:57.661Z,28.55
2023-04-16T21:58:25.765Z,32.70
2023-04-16T22:00:52.862Z,36.75
2023-04-16T22:03:19.827Z,26.55
2023-04-16T22:05:46.764Z,35.00
2023-04-16T22:08:23.980Z,35.75
2023-04-16T22:10:51.520Z,31.40
2023-04-16T22:13:18.290Z,29.85
2023-04-16T22:15:45.129Z,30.40
2023-04-16T22:18:12.071Z,37.22
2023-04-16T22:20:39.690Z,36.42
2023-04-16T22:23:06.850Z,35.35
2023-04-16T22:25:33.680Z,31.15
2023-04-16T22:28:01.553Z,38.70
2023-04-16T22:30:28.384Z,33.78
2023-04-16T22:32:55.300Z,37.17
2023-04-16T22:35:22.160Z,38.28
2023-04-16T22:37:48.936Z,31.02
2023-04-16T22:40:16.488Z,36.60
2023-04-16T22:42:43.254Z,41.58
2023-04-16T22:45:10.696Z,37.28
2023-04-16T22:47:38.580Z,37.55
2023-04-16T22:50:06.245Z,31.83
2023-04-16T22:52:32.975Z,37.40
2023-04-16T22:54:59.750Z,34.70
2023-04-16T22:57:26.479Z,32.85
2023-04-16T22:59:53.339Z,40.75
2023-04-16T23:02:21.296Z,39.60
2023-04-16T23:04:48.270Z,38.83
2023-04-16T23:07:16.113Z,38.25
2023-04-16T23:09:42.930Z,40.33
2023-04-16T23:12:09.695Z,34.03
2023-04-16T23:14:36.879Z,37.50
2023-04-16T23:17:03.782Z,34.72
2023-04-16T23:19:31.616Z,36.88
2023-04-16T23:21:58.704Z,35.53
2023-04-16T23:24:25.494Z,39.75
2023-04-16T23:26:52.646Z,33.28
2023-04-16T23:29:20.500Z,33.45
2023-04-16T23:31:47.743Z,36.95
2023-04-16T23:34:14.826Z,37.60
2023-04-16T23:36:41.677Z,38.05
2023-04-16T23:39:08.462Z,44.95
2023-04-16T23:41:35.188Z,40.72
2023-04-16T23:44:01.987Z,38.55
2023-04-16T23:46:28.831Z,40.47
2023-04-16T23:48:55.670Z,38.05
2023-04-16T23:51:22.549Z,37.63
2023-04-16T23:53:49.362Z,36.78
2023-04-16T23:56:16.534Z,40.10
2023-04-16T23:58:43.429Z,44.00
